Time;durP1;ratioP1;P1;durP2;ratioP2;P2;SDS_P1;SDS_P2;PMS_P1;PMS_P2;Temp;Humidity;BMP_temperature;BMP_pressure;BME280_temperature;BME280_humidity;BME280_pressure;Samples;Min_cycle;Max_cycle;Signal;HPM_P1;HPM_P2
2023/09/23 00:01:15;;;;;;;;;;;;;;;15.43;56.18;100663.88;4945271;28;120928;-82
2023/09/23 00:03:43;;;;;;;;;;;;;;;15.41;56.19;100663.09;4973706;28;120097;-81
2023/09/23 00:06:10;;;;;;;;;;;;;;;15.39;55.97;100671.22;4969311;28;124738;-83
2023/09/23 00:08:38;;;;;;;;;;;;;;;15.36;56.00;100672.28;4959619;28;124190;-83
2023/09/23 00:11:08;;;;;;;;;;;;;;;15.35;56.15;100675.91;4965831;28;120595;-81
2023/09/23 00:13:35;;;;;;;;;;;;;;;15.34;56.07;100673.34;4967894;28;118409;-83
2023/09/23 00:16:07;;;;;;;;;;;;;;;15.33;56.11;100675.16;4959889;28;123964;-82
2023/09/23 00:18:35;;;;;;;;;;;;;;;15.32;56.31;100681.44;4966986;28;123493;-81
2023/09/23 00:21:05;;;;;;;;;;;;;;;15.32;56.29;100686.78;4969047;28;119359;-81
2023/09/23 00:23:32;;;;;;;;;;;;;;;15.31;56.13;100689.56;4971408;28;119031;-81
2023/09/23 00:26:01;;;;;;;;;;;;;;;15.28;56.15;100690.63;4952932;28;122783;-82
2023/09/23 00:28:28;;;;;;;;;;;;;;;15.26;56.13;100692.53;4970923;28;123708;-81
2023/09/23 00:31:05;;;;;;;;;;;;;;;15.24;56.29;100678.47;4968534;28;121574;-81
2023/09/23 00:33:37;;;;;;;;;;;;;;;15.23;56.26;100687.41;4969004;28;119471;-83
2023/09/23 00:36:09;;;;;;;;;;;;;;;15.23;56.13;100682.06;4964911;28;124067;-82
2023/09/23 00:38:36;;;;;;;;;;;;;;;15.22;56.29;100680.38;4968516;28;125348;-82
2023/09/23 00:41:04;;;;;;;;;;;;;;;15.24;56.38;100672.25;4985067;28;119028;-83
2023/09/23 00:43:32;;;;;;;;;;;;;;;15.24;56.40;100689.13;4971558;28;118400;-83
2023/09/23 00:46:00;;;;;;;;;;;;;;;15.23;56.32;100687.41;4966437;28;123778;-82
2023/09/23 00:48:31;;;;;;;;;;;;;;;15.24;56.35;100689.13;4959660;28;123063;-81
2023/09/23 00:50:59;;;;;;;;;;;;;;;15.23;56.20;100682.06;4958350;28;118504;-85
2023/09/23 00:53:28;;;;;;;;;;;;;;;15.21;56.27;100692.00;4954234;28;118453;-81
2023/09/23 00:55:57;;;;;;;;;;;;;;;15.20;56.25;100692.97;4980066;28;122552;-83
2023/09/23 00:58:26;;;;;;;;;;;;;;;15.17;56.24;100698.50;4959397;28;124701;-82
2023/09/23 01:00:54;;;;;;;;;;;;;;;15.15;56.32;100692.41;4968080;28;119966;-81
2023/09/23 01:03:23;;;;;;;;;;;;;;;15.14;56.30;100704.03;4959799;28;118547;-82
2023/09/23 01:06:04;;;;;;;;;;;;;;;15.12;56.17;100705.94;4962165;28;124661;-82
2023/09/23 01:08:31;;;;;;;;;;;;;;;15.09;56.21;100706.16;4961752;28;124232;-83
2023/09/23 01:10:59;;;;;;;;;;;;;;;15.08;56.38;100704.44;4964402;28;122646;-84
2023/09/23 01:13:29;;;;;;;;;;;;;;;15.07;56.43;100702.72;4964424;28;118568;-84
2023/09/23 01:15:57;;;;;;;;;;;;;;;15.05;56.46;100704.63;4959666;28;123454;-82
2023/09/23 01:18:24;;;;;;;;;;;;;;;15.06;56.39;100709.03;4966484;28;124605;-82
2023/09/23 01:20:56;;;;;;;;;;;;;;;15.06;56.40;100709.03;4948890;28;121144;-83
2023/09/23 01:23:24;;;;;;;;;;;;;;;15.06;56.54;100717.88;4964982;28;120169;-83
2023/09/23 01:25:51;;;;;;;;;;;;;;;15.07;56.60;100708.03;4966886;28;124177;-82
2023/09/23 01:28:18;;;;;;;;;;;;;;;15.07;56.38;100708.03;4964817;28;123256;-81
2023/09/23 01:30:45;;;;;;;;;;;;;;;15.08;56.41;100709.78;4966914;28;119930;-83
2023/09/23 01:33:13;;;;;;;;;;;;;;;15.07;56.52;100721.38;4952943;28;118298;-82
2023/09/23 01:35:41;;;;;;;;;;;;;;;15.06;56.58;100717.03;4968182;28;124516;-82
2023/09/23 01:38:08;;;;;;;;;;;;;;;15.05;56.48;100725.97;4968153;28;123658;-84
2023/09/23 01:40:39;;;;;;;;;;;;;;;15.05;56.43;100731.31;4964415;28;119946;-82
2023/09/23 01:43:11;;;;;;;;;;;;;;;15.05;56.62;100731.31;4978030;28;119547;-82
2023/09/23 01:45:38;;;;;;;;;;;;;;;15.03;56.46;100739.44;4960168;28;123800;-82
2023/09/23 01:48:07;;;;;;;;;;;;;;;15.03;56.64;100727.88;4969393;28;124127;-82
2023/09/23 01:50:34;;;;;;;;;;;;;;;15.03;56.47;100731.44;4967307;28;119656;-82
2023/09/23 01:53:02;;;;;;;;;;;;;;;15.04;56.54;100740.28;4940241;28;120020;-83
2023/09/23 01:55:30;;;;;;;;;;;;;;;15.04;56.54;100740.28;4968936;28;124555;-84
2023/09/23 01:57:58;;;;;;;;;;;;;;;15.05;56.51;100747.31;4963694;28;122444;-81
2023/09/23 02:00:28;;;;;;;;;;;;;;;15.06;56.75;100749.03;4966723;28;119403;-83
2023/09/23 02:02:56;;;;;;;;;;;;;;;15.08;56.51;100747.13;4967943;28;118908;-82
2023/09/23 02:05:27;;;;;;;;;;;;;;;15.08;56.66;100749.78;4962666;28;122451;-81
2023/09/23 02:07:55;;;;;;;;;;;;;;;15.09;56.68;100751.50;4966516;28;125709;-83
2023/09/23 02:10:26;;;;;;;;;;;;;;;15.11;56.75;100741.59;4963936;28;120587;-82
2023/09/23 02:12:54;;;;;;;;;;;;;;;15.13;56.70;100750.34;4962663;28;119197;-83
2023/09/23 02:15:21;;;;;;;;;;;;;;;15.16;56.85;100752.78;4964837;28;123231;-83
2023/09/23 02:17:49;;;;;;;;;;;;;;;15.17;56.71;100747.34;4959330;28;123118;-82
2023/09/23 02:20:20;;;;;;;;;;;;;;;15.19;56.65;100752.59;4967644;28;120293;-82
2023/09/23 02:22:55;;;;;;;;;;;;;;;15.23;56.71;100756.78;4962400;28;118648;-81
2023/09/23 02:25:25;;;;;;;;;;;;;;;15.24;56.71;100758.50;4966218;28;127717;-81
2023/09/23 02:27:53;;;;;;;;;;;;;;;15.25;56.77;100749.53;4956293;28;124534;-83
2023/09/23 02:30:21;;;;;;;;;;;;;;;15.27;56.79;100763.59;4967824;28;119388;-83
2023/09/23 02:32:48;;;;;;;;;;;;;;;15.27;56.88;100768.94;4967866;28;118875;-83
2023/09/23 02:35:17;;;;;;;;;;;;;;;15.29;56.74;100772.38;4965653;28;123679;-81
2023/09/23 02:37:44;;;;;;;;;;;;;;;15.31;56.95;100775.81;4965185;28;124350;-81
2023/09/23 02:40:14;;;;;;;;;;;;;;;15.31;56.72;100781.16;4966253;28;119208;-81
2023/09/23 02:42:42;;;;;;;;;;;;;;;15.32;56.86;100782.84;4961923;28;118804;-81
2023/09/23 02:45:10;;;;;;;;;;;;;;;15.33;56.82;100784.56;4949168;28;123847;-83
2023/09/23 02:47:38;;;;;;;;;;;;;;;15.33;56.85;100789.91;4967935;28;123964;-81
2023/09/23 02:50:09;;;;;;;;;;;;;;;15.33;56.86;100789.91;4965698;28;119834;-82
2023/09/23 02:52:37;;;;;;;;;;;;;;;15.34;56.84;100791.59;4963646;28;118124;-82
2023/09/23 02:55:12;;;;;;;;;;;;;;;15.34;56.71;100791.59;4965942;28;123687;-81
2023/09/23 02:57:41;;;;;;;;;;;;;;;15.34;56.87;100796.94;4963084;28;124933;-81
2023/09/23 03:00:17;;;;;;;;;;;;;;;15.33;56.70;100800.59;4947792;28;118951;-83
2023/09/23 03:02:55;;;;;;;;;;;;;;;15.30;56.62;100797.25;4950332;28;119846;-82
2023/09/23 03:05:38;;;;;;;;;;;;;;;15.28;56.72;100807.19;4970941;28;124558;-83
2023/09/23 03:08:07;;;;;;;;;;;;;;;15.25;56.74;100810.03;4942533;28;124903;-83
2023/09/23 03:10:39;;;;;;;;;;;;;;;15.22;56.74;100807.56;4964818;28;119411;-82
2023/09/23 03:13:11;;;;;;;;;;;;;;;15.21;56.75;100812.03;4965833;28;119050;-82
2023/09/23 03:16:06;;;;;;;;;;;;;;;15.20;56.71;100815.69;4960407;28;123907;-82
2023/09/23 03:18:33;;;;;;;;;;;;;;;15.19;56.79;100816.63;4958151;28;122494;-81
2023/09/23 03:21:08;;;;;;;;;;;;;;;15.19;56.67;100816.63;4957907;28;118621;-81
2023/09/23 03:23:39;;;;;;;;;;;;;;;15.18;56.72;100822.91;4961205;28;118340;-82
2023/09/23 03:26:08;;;;;;;;;;;;;;;15.17;56.98;100818.53;4964037;28;124991;-84
2023/09/23 03:28:36;;;;;;;;;;;;;;;15.15;56.66;100823.13;4941085;28;123708;-82
2023/09/23 03:31:03;;;;;;;;;;;;;;;15.14;56.76;100826.72;4963934;28;120646;-83
2023/09/23 03:33:32;;;;;;;;;;;;;;;15.12;56.81;100821.50;4948601;28;119170;-82
2023/09/23 03:35:59;;;;;;;;;;;;;;;15.12;56.92;100829.50;4960912;28;123512;-81
2023/09/23 03:38:28;;;;;;;;;;;;;;;15.10;56.92;100819.88;4961076;28;123206;-84
2023/09/23 03:40:59;;;;;;;;;;;;;;;15.08;56.84;100824.47;4964361;28;119396;-81
2023/09/23 03:43:26;;;;;;;;;;;;;;;15.08;56.84;100821.81;4964729;28;118020;-81
2023/09/23 03:45:54;;;;;;;;;;;;;;;15.07;56.94;100822.75;4965053;28;125069;-84
2023/09/23 03:48:21;;;;;;;;;;;;;;;15.06;56.85;100831.72;4967256;28;124262;-81
2023/09/23 03:50:49;;;;;;;;;;;;;;;15.05;57.01;100830.88;4965712;28;120660;-81
2023/09/23 03:53:21;;;;;;;;;;;;;;;15.05;57.01;100832.66;4965673;28;119655;-81
2023/09/23 03:55:54;;;;;;;;;;;;;;;15.04;57.03;100838.97;4964827;28;125606;-80
2023/09/23 03:58:24;;;;;;;;;;;;;;;15.03;57.09;100837.25;4961329;28;126026;-84
2023/09/23 04:00:51;;;;;;;;;;;;;;;15.05;56.97;100844.22;4964998;28;119944;-85
2023/09/23 04:03:19;;;;;;;;;;;;;;;15.05;56.74;100854.00;4982376;28;118143;-83
2023/09/23 04:05:57;;;;;;;;;;;;;;;15.06;57.00;100855.72;4966692;28;123881;-81
2023/09/23 04:08:26;;;;;;;;;;;;;;;15.07;56.99;100855.63;4963971;28;124441;-81
2023/09/23 04:10:53;;;;;;;;;;;;;;;15.07;57.15;100857.41;4967351;28;119123;-82
2023/09/23 04:13:20;;;;;;;;;;;;;;;15.07;56.95;100858.31;4968072;28;119667;-83
2023/09/23 04:15:48;;;;;;;;;;;;;;;15.07;56.94;100857.41;4966849;28;124365;-83
2023/09/23 04:18:16;;;;;;;;;;;;;;;15.08;57.14;100859.16;4965848;28;125610;-85
2023/09/23 04:20:45;;;;;;;;;;;;;;;15.10;56.98;100862.56;4953783;28;119378;-83
2023/09/23 04:23:12;;;;;;;;;;;;;;;15.09;56.98;100860.88;4965386;28;119686;-83
2023/09/23 04:25:39;;;;;;;;;;;;;;;15.09;56.94;100860.88;4966518;28;124079;-83
2023/09/23 04:28:06;;;;;;;;;;;;;;;15.09;57.04;100868.88;4960608;28;124721;-83
2023/09/23 04:30:34;;;;;;;;;;;;;;;15.09;57.01;100872.41;4950189;28;119169;-85
2023/09/23 04:33:02;;;;;;;;;;;;;;;15.09;57.12;100876.88;4964929;28;118601;-82
2023/09/23 04:35:29;;;;;;;;;;;;;;;15.09;56.96;100882.22;4955534;28;123905;-82
2023/09/23 04:37:56;;;;;;;;;;;;;;;15.08;57.00;100875.16;4967200;28;123872;-81
2023/09/23 04:40:23;;;;;;;;;;;;;;;15.08;57.11;100886.66;4966026;28;120496;-83
2023/09/23 04:42:50;;;;;;;;;;;;;;;15.08;57.16;100880.50;4967209;28;119762;-83
2023/09/23 04:45:20;;;;;;;;;;;;;;;15.08;57.02;100885.81;4967571;28;124865;-83
2023/09/23 04:47:50;;;;;;;;;;;;;;;15.07;57.09;100881.44;4959079;28;125168;-81
2023/09/23 04:50:17;;;;;;;;;;;;;;;15.06;57.01;100893.06;4942448;28;118842;-83
2023/09/23 04:52:46;;;;;;;;;;;;;;;15.06;57.03;100890.41;4964308;28;119521;-81
2023/09/23 04:55:13;;;;;;;;;;;;;;;15.04;57.09;100894.97;4966503;28;125617;-81
2023/09/23 04:57:40;;;;;;;;;;;;;;;15.04;57.05;100901.16;4970285;28;125384;-81
2023/09/23 05:00:09;;;;;;;;;;;;;;;15.05;57.03;100896.69;4967153;28;120279;-81
2023/09/23 05:02:40;;;;;;;;;;;;;;;15.05;57.05;100902.00;4965862;28;118825;-84
2023/09/23 05:05:09;;;;;;;;;;;;;;;15.04;57.07;100898.50;4969188;28;124729;-82
2023/09/23 05:07:37;;;;;;;;;;;;;;;15.04;57.09;100910.97;4951586;28;123476;-82
2023/09/23 05:10:05;;;;;;;;;;;;;;;15.03;57.20;100909.25;4969865;28;119356;-83
2023/09/23 05:12:32;;;;;;;;;;;;;;;15.01;57.18;100911.16;4966085;28;119897;-82
2023/09/23 05:14:59;;;;;;;;;;;;;;;14.99;57.04;100920.13;4966930;28;124086;-81
2023/09/23 05:17:28;;;;;;;;;;;;;;;14.97;57.10;100916.72;4966153;28;124910;-83
2023/09/23 05:19:55;;;;;;;;;;;;;;;14.98;57.20;100923.75;4971520;28;118914;-84
2023/09/23 05:22:23;;;;;;;;;;;;;;;14.96;57.25;100930.97;4977662;28;118763;-85
2023/09/23 05:24:56;;;;;;;;;;;;;;;14.97;57.23;100938.03;4965230;28;123642;-82
2023/09/23 05:27:24;;;;;;;;;;;;;;;14.97;57.31;100943.38;4968406;28;124642;-82
2023/09/23 05:29:51;;;;;;;;;;;;;;;14.98;57.13;100953.06;4970254;28;119540;-82
2023/09/23 05:32:20;;;;;;;;;;;;;;;14.97;57.17;100954.06;4963536;28;117756;-82
2023/09/23 05:34:51;;;;;;;;;;;;;;;14.97;57.20;100959.38;4966631;28;125684;-81
2023/09/23 05:37:18;;;;;;;;;;;;;;;14.97;57.22;100964.72;4965670;28;124062;-82
2023/09/23 05:39:45;;;;;;;;;;;;;;;14.99;57.15;100962.81;4966891;28;119987;-81
2023/09/23 05:42:13;;;;;;;;;;;;;;;15.01;57.32;100975.19;4965122;28;119923;-83
2023/09/23 05:44:41;;;;;;;;;;;;;;;15.01;57.14;100975.19;4967735;28;123815;-83
2023/09/23 05:47:08;;;;;;;;;;;;;;;15.03;57.37;100978.59;4960112;28;123965;-82
2023/09/23 05:49:36;;;;;;;;;;;;;;;15.04;57.27;100985.66;4947766;28;118499;-81
2023/09/23 05:52:04;;;;;;;;;;;;;;;15.03;57.25;100978.59;4949486;28;119286;-81
2023/09/23 05:54:31;;;;;;;;;;;;;;;15.04;57.41;100988.34;4967927;28;124449;-82
2023/09/23 05:56:58;;;;;;;;;;;;;;;15.03;57.27;100983.94;4960786;28;122999;-82
2023/09/23 05:59:25;;;;;;;;;;;;;;;15.04;57.26;100985.66;4969236;28;119337;-82
2023/09/23 06:01:52;;;;;;;;;;;;;;;15.05;57.24;101003.38;4968780;28;119978;-82
2023/09/23 06:04:19;;;;;;;;;;;;;;;15.03;57.39;101005.28;4965772;28;124120;-81
2023/09/23 06:06:46;;;;;;;;;;;;;;;15.02;57.31;101011.59;4964516;28;123992;-82
2023/09/23 06:09:15;;;;;;;;;;;;;;;15.03;57.58;101013.28;4965865;28;119352;-82
2023/09/23 06:11:43;;;;;;;;;;;;;;;15.03;57.35;101015.94;4966479;28;118619;-84
2023/09/23 06:14:10;;;;;;;;;;;;;;;15.05;57.28;101022.94;4957445;28;123469;-82
2023/09/23 06:16:37;;;;;;;;;;;;;;;15.06;57.37;101026.44;4964597;28;122959;-82
2023/09/23 06:19:04;;;;;;;;;;;;;;;15.08;57.61;101035.22;4961515;28;120108;-82
2023/09/23 06:21:34;;;;;;;;;;;;;;;15.10;57.53;101049.31;4962464;28;119183;-82
2023/09/23 06:24:01;;;;;;;;;;;;;;;15.13;57.34;101049.13;4957881;28;123223;-82
2023/09/23 06:26:27;;;;;;;;;;;;;;;15.15;57.45;101047.22;4966662;28;124309;-82
2023/09/23 06:28:55;;;;;;;;;;;;;;;15.18;57.57;101052.34;4966662;28;120409;-82
2023/09/23 06:31:22;;;;;;;;;;;;;;;15.21;57.48;101052.19;4945680;28;118376;-81
2023/09/23 06:33:49;;;;;;;;;;;;;;;15.26;57.72;101060.78;4966663;28;124411;-82
2023/09/23 06:36:15;;;;;;;;;;;;;;;15.33;57.65;101067.44;4964873;28;124115;-81
2023/09/23 06:38:42;;;;;;;;;;;;;;;15.42;57.79;101070.50;4961671;28;119289;-81
2023/09/23 06:41:09;;;;;;;;;;;;;;;15.48;57.61;101070.09;4961300;28;117841;-81
2023/09/23 06:43:37;;;;;;;;;;;;;;;15.56;57.75;101078.53;4960512;28;125648;-82
2023/09/23 06:46:04;;;;;;;;;;;;;;;15.61;57.86;101073.72;4960979;28;124001;-82
2023/09/23 06:48:31;;;;;;;;;;;;;;;15.69;57.81;101079.47;4978302;28;120133;-82
2023/09/23 06:51:08;;;;;;;;;;;;;;;15.76;57.92;101080.84;4949915;28;118501;-82
2023/09/23 06:53:35;;;;;;;;;;;;;;;15.84;57.99;101085.69;4966656;28;124147;-82
2023/09/23 06:56:03;;;;;;;;;;;;;;;15.91;57.89;101088.81;4968758;28;123027;-82
2023/09/23 06:58:30;;;;;;;;;;;;;;;15.95;57.78;101082.31;4968903;28;119504;-83
2023/09/23 07:00:57;;;;;;;;;;;;;;;16.04;57.81;101084.41;4967469;28;119426;-81
2023/09/23 07:03:25;;;;;;;;;;;;;;;16.12;57.77;101092.81;4960592;28;123248;-80
2023/09/23 07:05:52;;;;;;;;;;;;;;;16.18;57.89;101085.31;4966396;28;122632;-80
2023/09/23 07:08:19;;;;;;;;;;;;;;;16.25;57.64;101092.00;4984273;28;120521;-81
2023/09/23 07:10:47;;;;;;;;;;;;;;;16.31;57.70;101096.94;4968785;28;120165;-81
2023/09/23 07:13:14;;;;;;;;;;;;;;;16.36;57.75;101102.84;4968119;28;125022;-80
2023/09/23 07:15:41;;;;;;;;;;;;;;;16.43;57.77;101106.84;4961399;28;123170;-81
2023/09/23 07:18:09;;;;;;;;;;;;;;;16.48;57.72;101110.06;4971675;28;120058;-78
2023/09/23 07:20:36;;;;;;;;;;;;;;;16.54;57.79;101115.00;4964989;28;119302;-78
2023/09/23 07:23:03;;;;;;;;;;;;;;;16.61;57.90;101111.91;4949593;28;123961;-80
2023/09/23 07:25:36;;;;;;;;;;;;;;;16.69;57.79;101123.00;4967687;28;123683;-78
2023/09/23 07:28:05;;;;;;;;;;;;;;;16.80;57.95;101124.91;4959177;28;119675;-80
2023/09/23 07:30:33;;;;;;;;;;;;;;;16.88;57.88;101128.00;4960298;28;119241;-79
2023/09/23 07:33:01;;;;;;;;;;;;;;;16.96;57.78;101135.50;4963607;28;124327;-79
2023/09/23 07:35:31;;;;;;;;;;;;;;;17.02;57.68;101135.09;4962121;28;124748;-79
2023/09/23 07:37:59;;;;;;;;;;;;;;;17.07;57.67;101149.03;4964538;28;119465;-78
2023/09/23 07:40:30;;;;;;;;;;;;;;;17.12;57.71;101152.22;4951999;28;117713;-81
2023/09/23 07:42:57;;;;;;;;;;;;;;;17.16;57.73;101148.41;4964185;28;123457;-79
2023/09/23 07:45:24;;;;;;;;;;;;;;;17.21;57.66;101156.94;4962584;28;124056;-80
2023/09/23 07:47:51;;;;;;;;;;;;;;;17.25;57.61;101158.47;4964453;28;119229;-79
2023/09/23 07:50:19;;;;;;;;;;;;;;;17.29;57.53;101159.97;4961929;28;117545;-79
2023/09/23 07:52:46;;;;;;;;;;;;;;;17.36;57.55;101159.56;4958458;28;123291;-81
2023/09/23 07:55:13;;;;;;;;;;;;;;;17.41;57.63;101168.13;4965777;28;125024;-78
2023/09/23 07:57:40;;;;;;;;;;;;;;;17.48;57.73;101174.78;4967784;28;121301;-81
2023/09/23 08:00:11;;;;;;;;;;;;;;;17.55;57.78;101164.50;4967950;28;119588;-79
2023/09/23 08:02:38;;;;;;;;;;;;;;;17.62;57.74;101172.00;4954610;28;125077;-80
2023/09/23 08:05:05;;;;;;;;;;;;;;;17.69;57.67;101178.66;4966946;28;123944;-80
2023/09/23 08:07:32;;;;;;;;;;;;;;;17.77;57.59;101179.94;4956707;28;118577;-82
2023/09/23 08:09:59;;;;;;;;;;;;;;;17.85;57.86;101188.31;4966876;28;120097;-78
2023/09/23 08:12:28;;;;;;;;;;;;;;;17.95;57.85;101194.75;4967861;28;124506;-81
2023/09/23 08:14:55;;;;;;;;;;;;;;;18.05;57.75;101195.81;4950763;28;123708;-81
2023/09/23 08:17:22;;;;;;;;;;;;;;;18.14;57.62;101191.63;4966236;28;119302;-82
2023/09/23 08:19:50;;;;;;;;;;;;;;;18.22;57.78;101191.94;4961233;28;118472;-82
2023/09/23 08:22:17;;;;;;;;;;;;;;;18.32;57.69;101197.47;4962143;28;123824;-79
2023/09/23 08:24:44;;;;;;;;;;;;;;;18.40;57.65;101205.84;4954744;28;123654;-76
2023/09/23 08:27:11;;;;;;;;;;;;;;;18.49;57.70;101210.53;4968471;28;121262;-80
2023/09/23 08:29:38;;;;;;;;;;;;;;;18.60;57.65;101216.94;4966637;28;119810;-80
2023/09/23 08:32:05;;;;;;;;;;;;;;;18.68;57.60;101214.53;4967636;28;124352;-79
2023/09/23 08:34:33;;;;;;;;;;;;;;;18.77;57.58;101219.25;4966471;28;124757;-80
2023/09/23 08:37:00;;;;;;;;;;;;;;;18.83;57.44;101220.66;4957530;28;119986;-79
2023/09/23 08:39:28;;;;;;;;;;;;;;;18.88;57.44;101225.69;4952541;28;118508;-78
2023/09/23 08:41:55;;;;;;;;;;;;;;;18.93;57.32;101228.88;4966896;28;125060;-82
2023/09/23 08:44:24;;;;;;;;;;;;;;;18.95;57.47;101226.94;4966038;28;126417;-79
2023/09/23 08:46:52;;;;;;;;;;;;;;;18.96;57.21;101234.03;4978757;28;119062;-79
2023/09/23 08:49:21;;;;;;;;;;;;;;;18.96;57.14;101239.38;4970834;28;119551;-79
2023/09/23 08:51:50;;;;;;;;;;;;;;;18.98;57.16;101249.03;4966352;28;124086;-78
2023/09/23 08:54:18;;;;;;;;;;;;;;;19.04;57.34;101247.72;4962531;28;121545;-79
2023/09/23 08:56:45;;;;;;;;;;;;;;;19.07;57.25;101247.50;4968758;28;119664;-79
2023/09/23 08:59:14;;;;;;;;;;;;;;;19.06;57.07;101251.16;4967289;28;119071;-79
2023/09/23 09:01:41;;;;;;;;;;;;;;;19.06;57.10;101256.50;4967518;28;124103;-79
2023/09/23 09:04:11;;;;;;;;;;;;;;;19.06;57.01;101261.88;4967952;28;123467;-77
2023/09/23 09:06:45;;;;;;;;;;;;;;;19.07;57.05;101260.94;4951099;28;118574;-77
2023/09/23 09:09:12;;;;;;;;;;;;;;;19.10;57.09;101268.75;4969500;28;119615;-78
2023/09/23 09:11:39;;;;;;;;;;;;;;;19.15;57.23;101276.47;4970181;28;123407;-78
2023/09/23 09:14:07;;;;;;;;;;;;;;;19.22;57.43;101265.16;4970840;28;124451;-79
2023/09/23 09:16:34;;;;;;;;;;;;;;;19.33;57.36;101274.25;4982172;28;119821;-78
2023/09/23 09:19:01;;;;;;;;;;;;;;;19.42;57.33;101284.28;4979165;28;118953;-77
2023/09/23 09:21:28;;;;;;;;;;;;;;;19.50;57.41;101281.88;4964232;28;124146;-77
2023/09/23 09:23:55;;;;;;;;;;;;;;;19.56;57.19;101286.78;4965629;28;123583;-77
2023/09/23 09:26:22;;;;;;;;;;;;;;;19.59;57.09;101286.56;4967566;28;119231;-77
2023/09/23 09:28:49;;;;;;;;;;;;;;;19.63;57.07;101288.03;4962645;28;118824;-76
2023/09/23 09:31:17;;;;;;;;;;;;;;;19.67;57.16;101298.56;4962592;28;123371;-77
2023/09/23 09:33:47;;;;;;;;;;;;;;;19.74;57.12;101299.81;4961409;28;124863;-76
2023/09/23 09:36:17;;;;;;;;;;;;;;;19.78;57.09;101299.47;4965749;28;120273;-77
2023/09/23 09:38:44;;;;;;;;;;;;;;;19.81;57.05;101298.38;4966467;28;121228;-79
2023/09/23 09:41:16;;;;;;;;;;;;;;;19.82;56.93;101314.38;4960320;28;123962;-79
2023/09/23 09:43:45;;;;;;;;;;;;;;;19.83;56.92;101307.16;4963765;28;123961;-78
2023/09/23 09:46:13;;;;;;;;;;;;;;;19.82;56.83;101314.38;4957918;28;119809;-79
2023/09/23 09:48:41;;;;;;;;;;;;;;;19.83;56.94;101307.16;4965321;28;118454;-78
2023/09/23 09:51:13;;;;;;;;;;;;;;;19.88;56.97;101302.31;4944627;28;124019;-79
2023/09/23 09:53:41;;;;;;;;;;;;;;;19.92;56.87;101309.16;4966206;28;123664;-79
2023/09/23 09:56:08;;;;;;;;;;;;;;;19.93;56.76;101310.88;4965560;28;119507;-79
2023/09/23 09:58:37;;;;;;;;;;;;;;;19.93;56.92;101310.88;4961013;28;119205;-79
2023/09/23 10:01:04;;;;;;;;;;;;;;;19.96;56.97;101305.25;4965992;28;123493;-79
2023/09/23 10:03:32;;;;;;;;;;;;;;;19.98;56.79;101313.19;4968345;28;124922;-79
2023/09/23 10:05:59;;;;;;;;;;;;;;;19.95;56.76;101322.38;4971450;28;119448;-79
2023/09/23 10:08:34;;;;;;;;;;;;;;;19.95;56.64;101325.06;4968920;28;118888;-79
2023/09/23 10:11:05;;;;;;;;;;;;;;;19.93;56.77;101327.00;4966272;28;124355;-79
2023/09/23 10:13:32;;;;;;;;;;;;;;;19.94;56.71;101334.09;4973546;28;124167;-79
2023/09/23 10:16:03;;;;;;;;;;;;;;;19.96;56.64;101326.75;4969444;28;120800;-79
2023/09/23 10:18:33;;;;;;;;;;;;;;;20.00;56.91;101325.56;4970665;28;118176;-79
2023/09/23 10:21:02;;;;;;;;;;;;;;;20.10;56.88;101331.09;4936449;28;123634;-78
2023/09/23 10:23:34;;;;;;;;;;;;;;;20.17;56.93;101328.75;4960999;28;124766;-79
2023/09/23 10:26:18;;;;;;;;;;;;;;;20.19;56.79;101333.06;4969433;28;120670;-81
2023/09/23 10:28:58;;;;;;;;;;;;;;;20.22;56.85;101340.03;4967694;28;119586;-79
2023/09/23 10:31:29;;;;;;;;;;;;;;;20.25;56.86;101342.50;4970885;28;123886;-78
2023/09/23 10:33:56;;;;;;;;;;;;;;;20.29;56.75;101343.94;4974263;28;123877;-78
2023/09/23 10:36:23;;;;;;;;;;;;;;;20.34;56.86;101344.47;4983250;28;120106;-79
2023/09/23 10:38:50;;;;;;;;;;;;;;;20.40;56.82;101351.19;4977666;28;119272;-79
2023/09/23 10:41:17;;;;;;;;;;;;;;;20.39;56.58;101350.31;4973549;28;123928;-79
2023/09/23 10:43:52;;;;;;;;;;;;;;;20.38;56.43;101362.06;4971656;28;124266;-79
2023/09/23 10:46:19;;;;;;;;;;;;;;;20.37;56.55;101363.03;4956182;28;118650;-79
2023/09/23 10:48:46;;;;;;;;;;;;;;;20.36;56.47;101366.72;4971318;28;119723;-79
2023/09/23 10:51:14;;;;;;;;;;;;;;;20.36;56.61;101374.78;4960094;28;124160;-80
2023/09/23 10:53:42;;;;;;;;;;;;;;;20.37;56.57;101368.41;4967022;28;124216;-79
2023/09/23 10:56:10;;;;;;;;;;;;;;;20.36;56.53;101372.09;4967253;28;118396;-80
2023/09/23 10:58:38;;;;;;;;;;;;;;;20.36;56.56;101377.47;4963197;28;118601;-79
2023/09/23 11:01:06;;;;;;;;;;;;;;;20.37;56.59;101384.56;4962960;28;124357;-79
2023/09/23 11:03:40;;;;;;;;;;;;;;;20.39;56.57;101387.97;4965084;28;123576;-79
2023/09/23 11:06:08;;;;;;;;;;;;;;;20.41;56.57;101380.66;4961864;28;119223;-78
2023/09/23 11:08:36;;;;;;;;;;;;;;;20.43;56.67;101384.06;4966999;28;118419;-78
2023/09/23 11:11:03;;;;;;;;;;;;;;;20.46;56.60;101383.00;4965488;28;123370;-79
2023/09/23 11:13:33;;;;;;;;;;;;;;;20.50;56.47;101389.00;4963977;28;123364;-79
2023/09/23 11:16:08;;;;;;;;;;;;;;;20.49;56.45;101395.34;4959479;28;119528;-78
2023/09/23 11:18:36;;;;;;;;;;;;;;;20.49;56.50;101400.72;4968333;28;118890;-80
2023/09/23 11:21:03;;;;;;;;;;;;;;;20.49;56.65;101408.78;4968038;28;125752;-79
2023/09/23 11:23:30;;;;;;;;;;;;;;;20.52;56.56;101403.19;4966891;28;124712;-79
2023/09/23 11:25:58;;;;;;;;;;;;;;;20.53;56.31;101410.25;4964997;28;119515;-78
2023/09/23 11:28:25;;;;;;;;;;;;;;;20.50;56.33;101414.06;4967766;28;118853;-79
2023/09/23 11:30:53;;;;;;;;;;;;;;;20.48;56.31;101412.47;4966667;28;125158;-78
2023/09/23 11:33:24;;;;;;;;;;;;;;;20.48;56.33;101417.84;4963476;28;124613;-78
2023/09/23 11:35:54;;;;;;;;;;;;;;;20.53;56.62;101421.03;4964575;28;119932;-78
2023/09/23 11:38:21;;;;;;;;;;;;;;;20.57;56.48;101411.75;4949784;28;120222;-80
2023/09/23 11:40:48;;;;;;;;;;;;;;;20.61;56.46;101413.25;4959252;28;124417;-79
2023/09/23 11:43:15;;;;;;;;;;;;;;;20.66;56.54;101415.56;4965355;28;125160;-82
2023/09/23 11:45:43;;;;;;;;;;;;;;;20.73;56.53;101417.66;4965486;28;118501;-80
2023/09/23 11:48:10;;;;;;;;;;;;;;;20.83;56.59;101416.94;4962238;28;118752;-81
2023/09/23 11:50:38;;;;;;;;;;;;;;;20.94;56.60;101419.63;4963659;28;124304;-80
2023/09/23 11:53:05;;;;;;;;;;;;;;;21.08;56.68;101427.47;4964099;28;123890;-78
2023/09/23 11:55:32;;;;;;;;;;;;;;;21.27;56.90;101432.22;4963018;28;120255;-80
2023/09/23 11:58:00;;;;;;;;;;;;;;;21.42;56.67;101435.53;4963343;28;119066;-78
2023/09/23 12:00:28;;;;;;;;;;;;;;;21.52;56.40;101433.81;4949847;28;123143;-80
2023/09/23 12:02:56;;;;;;;;;;;;;;;21.60;56.42;101445.81;4961637;28;123933;-79
2023/09/23 12:05:29;;;;;;;;;;;;;;;21.65;56.22;101441.75;4960847;28;120874;-78
2023/09/23 12:07:58;;;;;;;;;;;;;;;21.67;56.10;101438.94;4959909;28;121207;-78
2023/09/23 12:10:27;;;;;;;;;;;;;;;21.72;56.06;101447.50;4954991;28;123526;-79
2023/09/23 12:13:02;;;;;;;;;;;;;;;21.78;56.11;101450.53;4958438;28;124141;-78
2023/09/23 12:15:30;;;;;;;;;;;;;;;21.86;56.21;101452.59;4961078;28;119077;-78
2023/09/23 12:17:57;;;;;;;;;;;;;;;21.96;56.22;101449.97;4963233;28;119370;-78
2023/09/23 12:20:25;;;;;;;;;;;;;;;22.01;55.98;101449.59;4961948;28;125159;-78
2023/09/23 12:22:52;;;;;;;;;;;;;;;22.02;55.98;101459.38;4966476;28;124504;-78
2023/09/23 12:25:20;;;;;;;;;;;;;;;22.00;55.65;101461.38;4957907;28;119803;-79
2023/09/23 12:27:47;;;;;;;;;;;;;;;21.95;55.59;101459.91;4965102;28;118681;-78
2023/09/23 12:30:17;;;;;;;;;;;;;;;21.89;55.48;101468.53;4964348;28;124523;-78
2023/09/23 12:32:45;;;;;;;;;;;;;;;21.85;55.55;101469.75;4958356;28;124488;-78
2023/09/23 12:35:12;;;;;;;;;;;;;;;21.85;55.66;101474.28;4966269;28;120409;-78